Time;durP1;ratioP1;P1;durP2;ratioP2;P2;SDS_P1;SDS_P2;PMS_P1;PMS_P2;Temp;Humidity;BMP_temperature;BMP_pressure;BME280_temperature;BME280_humidity;BME280_pressure;Samples;Min_cycle;Max_cycle;Signal;HPM_P1;HPM_P2
2022/05/31 00:02:00;;;;;;;5.30;3.67;;;;;;;15.58;71.57;99500.66;4981424;28;20076;-78
2022/05/31 00:04:27;;;;;;;7.55;3.58;;;;;;;15.61;71.55;99497.06;5013100;28;20029;-78
2022/05/31 00:06:52;;;;;;;7.47;3.88;;;;;;;15.61;70.96;99492.69;5016524;28;20084;-78
2022/05/31 00:09:19;;;;;;;6.22;3.92;;;;;;;15.61;70.39;99499.69;5018425;28;20037;-77
2022/05/31 00:11:44;;;;;;;6.75;3.92;;;;;;;15.62;70.66;99497.03;5002338;28;20069;-78
2022/05/31 00:14:11;;;;;;;5.10;3.60;;;;;;;15.63;70.12;99495.31;5016201;28;20053;-78
2022/05/31 00:16:37;;;;;;;6.63;3.65;;;;;;;15.64;70.11;99492.66;5033533;28;20505;-78
2022/05/31 00:19:02;;;;;;;5.47;3.60;;;;;;;15.62;70.18;99494.41;5023779;28;20049;-78
2022/05/31 00:21:40;;;;;;;26.20;23.60;;;;;;;15.64;70.04;99497.03;5002607;28;20038;-77
2022/05/31 00:24:07;;;;;;;6.22;5.20;;;;;;;15.59;70.15;99486.66;5008968;28;20128;-78
2022/05/31 00:26:33;;;;;;;6.55;3.88;;;;;;;15.61;70.13;99492.69;5014005;28;20025;-78
2022/05/31 00:28:58;;;;;;;5.35;3.65;;;;;;;15.62;70.33;99497.03;5028651;28;20404;-78
2022/05/31 00:31:24;;;;;;;5.68;3.65;;;;;;;15.58;70.14;99503.25;5020428;28;20033;-78
2022/05/31 00:33:50;;;;;;;7.18;3.40;;;;;;;15.54;70.67;99501.63;5026245;28;20050;-78
2022/05/31 00:36:16;;;;;;;7.93;3.75;;;;;;;15.54;70.58;99509.47;5002231;28;20050;-79
2022/05/31 00:38:42;;;;;;;7.55;3.53;;;;;;;15.55;71.15;99508.56;4996960;28;20042;-79
2022/05/31 00:41:24;;;;;;;5.40;3.97;;;;;;;15.57;71.30;99516.38;4991089;28;20411;-78
2022/05/31 00:43:52;;;;;;;9.15;4.43;;;;;;;15.49;71.36;99513.97;5013227;28;20064;-78
2022/05/31 00:46:19;;;;;;;6.25;4.00;;;;;;;15.43;71.24;99521.94;4997739;28;20053;-77
2022/05/31 00:48:55;;;;;;;5.13;3.80;;;;;;;15.42;71.36;99533.31;5001423;28;20041;-79
2022/05/31 00:51:21;;;;;;;5.93;4.30;;;;;;;15.40;71.87;99524.66;5034314;28;20041;-78
2022/05/31 00:53:49;;;;;;;5.70;3.85;;;;;;;15.39;71.72;99525.53;5019899;28;20045;-78
2022/05/31 00:56:21;;;;;;;7.43;4.22;;;;;;;15.48;71.19;99533.16;5024174;28;20038;-77
2022/05/31 00:58:56;;;;;;;7.82;3.90;;;;;;;15.44;71.31;99528.88;4999421;28;20524;-79
2022/05/31 01:01:22;;;;;;;6.00;4.32;;;;;;;15.43;71.43;99527.19;5017973;28;20420;-79
2022/05/31 01:03:47;;;;;;;7.43;4.07;;;;;;;15.43;71.39;99529.78;4984262;28;20035;-79
2022/05/31 01:06:13;;;;;;;5.80;4.03;;;;;;;15.44;71.44;99521.94;4978875;28;20041;-77
2022/05/31 01:08:44;;;;;;;6.57;4.40;;;;;;;15.48;71.50;99520.06;5002137;28;20038;-78
2022/05/31 01:11:31;;;;;;;5.95;4.13;;;;;;;15.59;70.88;99535.50;5015218;28;20140;-78
2022/05/31 01:14:23;;;;;;;6.15;4.65;;;;;;;15.45;72.02;99535.84;5018324;28;20061;-77
2022/05/31 01:17:34;;;;;;;6.28;3.60;;;;;;;15.49;72.27;99540.13;5037176;28;20052;-78
2022/05/31 01:20:07;;;;;;;9.00;4.40;;;;;;;15.36;72.48;99546.56;5027591;28;20075;-78
2022/05/31 01:22:59;;;;;;;6.07;4.05;;;;;;;15.37;72.64;99545.66;5025424;28;20037;-79
2022/05/31 01:25:50;;;;;;;;;;;;;;;15.42;71.47;99549.00;5010571;28;20058;-78
2022/05/31 01:28:30;;;;;;;6.57;4.35;;;;;;;15.36;72.13;99551.78;5022553;28;20367;-78
2022/05/31 01:31:07;;;;;;;6.72;4.03;;;;;;;15.31;72.56;99551.03;5013762;28;20037;-77
2022/05/31 01:33:41;;;;;;;6.65;4.10;;;;;;;15.28;73.07;99543.25;5026734;28;20050;-77
2022/05/31 01:36:09;;;;;;;7.97;4.20;;;;;;;15.27;73.53;99539.78;4997851;28;20045;-78
2022/05/31 01:38:52;;;;;;;7.50;4.38;;;;;;;15.22;73.91;99532.06;4982303;28;20108;-78
2022/05/31 01:41:25;;;;;;;6.97;4.18;;;;;;;15.19;74.09;99533.91;5013882;28;20183;-77
2022/05/31 01:43:52;;;;;;;7.32;5.40;;;;;;;15.22;74.68;99534.69;5008409;28;20042;-77
2022/05/31 01:46:28;;;;;;;10.00;4.80;;;;;;;15.18;75.33;99543.50;5027997;28;20123;-78
2022/05/31 01:48:54;;;;;;;8.52;5.10;;;;;;;15.13;75.15;99537.53;5022881;28;20050;-77
2022/05/31 01:51:20;;;;;;;7.47;5.03;;;;;;;15.16;75.87;99537.44;5027434;28;20037;-79
2022/05/31 01:53:46;;;;;;;8.68;5.50;;;;;;;15.09;76.02;99535.88;4991225;28;20468;-77
2022/05/31 01:56:12;;;;;;;9.93;6.50;;;;;;;15.03;76.01;99535.16;5009551;28;20030;-77
2022/05/31 01:58:40;;;;;;;7.75;5.60;;;;;;;15.07;76.45;99542.03;5009578;28;20075;-78
2022/05/31 02:01:06;;;;;;;10.95;6.05;;;;;;;15.06;76.74;99541.16;4998156;28;20033;-78
2022/05/31 02:03:32;;;;;;;9.88;5.72;;;;;;;15.11;76.83;99538.44;4998236;28;20481;-78
2022/05/31 02:05:59;;;;;;;8.82;5.40;;;;;;;15.09;76.38;99538.50;5035792;28;20065;-78
2022/05/31 02:08:29;;;;;;;8.43;5.43;;;;;;;15.10;76.28;99537.59;5040823;28;20098;-78
2022/05/31 02:10:56;;;;;;;11.95;5.20;;;;;;;15.15;76.48;99533.09;4996580;28;20042;-78
2022/05/31 02:13:25;;;;;;;7.68;5.22;;;;;;;15.11;76.08;99530.59;5001492;28;20139;-78
2022/05/31 02:16:00;;;;;;;7.78;5.25;;;;;;;15.07;76.81;99529.81;5000857;28;20131;-78
2022/05/31 02:21:39;;;;;;;7.15;5.20;;;;;;;15.14;76.61;99534.00;5019044;28;20492;-78
2022/05/31 02:24:13;;;;;;;8.07;5.15;;;;;;;15.14;76.87;99538.38;5014437;28;20103;-78
2022/05/31 02:26:43;;;;;;;8.23;5.03;;;;;;;14.94;76.52;99517.97;5030123;28;20113;-78
2022/05/31 02:29:10;;;;;;;12.77;8.80;;;;;;;15.00;77.35;99533.50;5014481;28;20026;-77
2022/05/31 02:31:36;;;;;;;7.75;5.30;;;;;;;15.01;77.78;99529.97;5009174;28;20440;-78
2022/05/31 02:34:02;;;;;;;6.07;4.57;;;;;;;15.05;77.78;99520.31;5008586;28;20119;-77
2022/05/31 02:36:28;;;;;;;7.82;4.95;;;;;;;15.12;77.74;99519.25;4996373;28;20094;-78
2022/05/31 02:38:54;;;;;;;6.82;4.85;;;;;;;15.09;77.16;99525.44;5030018;28;20037;-78
2022/05/31 02:41:26;;;;;;;8.75;4.70;;;;;;;15.09;76.38;99528.03;5014718;28;20087;-77
2022/05/31 02:43:52;;;;;;;8.32;5.00;;;;;;;15.07;76.16;99516.75;5008048;28;20089;-77
2022/05/31 02:46:18;;;;;;;7.28;4.60;;;;;;;15.11;76.17;99522.78;5008210;28;20023;-78
2022/05/31 02:48:44;;;;;;;8.77;5.00;;;;;;;15.08;76.21;99517.66;5024885;28;20096;-78
2022/05/31 02:51:10;;;;;;;7.82;5.07;;;;;;;15.07;76.09;99511.53;5033625;28;20029;-78
2022/05/31 02:53:35;;;;;;;6.38;4.50;;;;;;;14.99;76.42;99522.19;5013869;28;20064;-79
2022/05/31 02:56:03;;;;;;;7.72;4.95;;;;;;;15.03;76.93;99516.88;4992333;28;20041;-77
2022/05/31 02:58:47;;;;;;;6.85;5.07;;;;;;;15.07;76.52;99526.34;5054250;28;20123;-78
2022/05/31 03:01:51;;;;;;;8.25;5.72;;;;;;;15.06;76.61;99519.41;5022699;28;20064;-78
2022/05/31 03:04:37;;;;;;;7.43;5.22;;;;;;;14.89;76.25;99511.97;5030206;28;20128;-77
2022/05/31 03:07:35;;;;;;;7.65;5.18;;;;;;;14.87;76.94;99519.88;4995542;28;20469;-79
2022/05/31 03:10:09;;;;;;;9.18;4.68;;;;;;;14.98;77.78;99519.59;5003747;28;20042;-79
2022/05/31 03:12:35;;;;;;;6.55;4.72;;;;;;;15.04;77.16;99523.84;5011579;28;20392;-79
2022/05/31 03:15:08;;;;;;;6.95;4.57;;;;;;;15.02;76.79;99517.78;5016850;28;20038;-78
2022/05/31 03:17:37;;;;;;;6.43;4.35;;;;;;;15.03;76.76;99520.38;5011975;28;20037;-79
2022/05/31 03:20:02;;;;;;;7.32;4.47;;;;;;;15.04;76.75;99516.84;5020465;28;20129;-77
2022/05/31 03:22:36;;;;;;;10.40;5.47;;;;;;;15.01;77.13;99519.53;5007901;28;20575;-78
2022/05/31 03:25:06;;;;;;;8.38;4.93;;;;;;;15.00;77.11;99534.34;5016764;28;20046;-79
2022/05/31 03:27:31;;;;;;;11.25;7.93;;;;;;;14.97;77.73;99537.03;5031506;28;20088;-77
2022/05/31 03:29:57;;;;;;;8.35;5.60;;;;;;;14.98;77.78;99532.66;5031862;28;20046;-78
2022/05/31 03:32:23;;;;;;;8.65;5.45;;;;;;;14.97;77.53;99526.56;5023526;28;20036;-79
2022/05/31 03:34:49;;;;;;;6.72;4.68;;;;;;;15.04;78.23;99529.91;5023057;28;20054;-78
2022/05/31 03:37:15;;;;;;;8.10;4.97;;;;;;;15.07;77.50;99531.56;5019276;28;20507;-77
2022/05/31 03:39:41;;;;;;;9.10;5.05;;;;;;;15.04;77.15;99519.47;5001307;28;20113;-79
2022/05/31 03:42:07;;;;;;;8.32;4.93;;;;;;;14.94;77.03;99516.22;4981410;28;20806;-79
2022/05/31 03:44:33;;;;;;;6.80;4.88;;;;;;;15.05;77.70;99518.56;4997637;28;20094;-79
2022/05/31 03:47:01;;;;;;;5.75;4.60;;;;;;;15.05;77.83;99520.31;5014360;28;20465;-79
2022/05/31 03:49:45;;;;;;;8.18;4.90;;;;;;;15.10;77.41;99514.06;5003683;28;20057;-78
2022/05/31 03:52:14;;;;;;;8.18;4.20;;;;;;;15.12;77.79;99525.38;5020027;28;20043;-79
2022/05/31 03:54:42;;;;;;;9.02;4.70;;;;;;;15.11;77.42;99523.63;5024915;28;20396;-77
2022/05/31 03:57:16;;;;;;;10.13;4.43;;;;;;;15.12;77.78;99520.16;5001994;28;20381;-78
2022/05/31 03:59:46;;;;;;;5.05;4.07;;;;;;;15.13;77.36;99524.47;5024038;28;20038;-78
2022/05/31 04:02:12;;;;;;;15.05;10.25;;;;;;;15.11;77.11;99522.78;4983550;28;20176;-81
2022/05/31 04:04:38;;;;;;;7.63;5.28;;;;;;;15.03;77.22;99512.53;5017618;28;20041;-79
2022/05/31 04:07:04;;;;;;;10.73;7.35;;;;;;;15.00;77.31;99499.53;4997298;28;20460;-79
2022/05/31 04:09:31;;;;;;;7.45;5.50;;;;;;;14.95;77.23;99522.31;5024832;28;20038;-78
2022/05/31 04:11:59;;;;;;;6.38;4.38;;;;;;;14.88;77.42;99512.88;5019248;28;20034;-82
2022/05/31 04:14:53;;;;;;;9.88;5.03;;;;;;;14.83;78.21;99517.34;5024023;28;20046;-82
2022/05/31 04:17:19;;;;;;;6.90;4.60;;;;;;;14.79;78.60;99505.25;4988164;28;20104;-80
2022/05/31 04:19:44;;;;;;;6.65;4.38;;;;;;;14.82;78.73;99515.66;5008835;28;20064;-80
2022/05/31 04:22:12;;;;;;;8.20;4.57;;;;;;;14.83;78.69;99523.44;5014650;28;20635;-80
2022/05/31 04:24:39;;;;;;;5.47;4.30;;;;;;;14.89;78.63;99528.53;4998314;28;20034;-80
2022/05/31 04:27:23;;;;;;;6.80;4.15;;;;;;;14.94;78.59;99518.84;5005087;28;20133;-80
2022/05/31 04:30:08;;;;;;;7.88;4.70;;;;;;;14.88;78.50;99515.50;5022764;28;20053;-82
2022/05/31 04:33:07;;;;;;;6.22;4.43;;;;;;;14.98;78.14;99522.22;5025122;28;20057;-80
2022/05/31 04:35:35;;;;;;;6.38;4.78;;;;;;;14.91;78.30;99511.06;5025149;28;20496;-80
2022/05/31 04:38:01;;;;;;;7.88;4.70;;;;;;;14.89;78.35;99519.81;5011655;28;20038;-81
2022/05/31 04:40:47;;;;;;;8.15;5.90;;;;;;;14.83;78.36;99522.59;5024775;28;20068;-82
2022/05/31 04:43:18;;;;;;;7.97;5.70;;;;;;;14.71;79.01;99522.00;5012236;28;20046;-81
2022/05/31 04:45:47;;;;;;;6.05;5.35;;;;;;;14.74;79.58;99532.34;5030569;28;20048;-81
2022/05/31 04:48:31;;;;;;;5.95;4.80;;;;;;;14.84;79.22;99524.28;5014236;28;20076;-81
2022/05/31 04:50:57;;;;;;;6.68;5.13;;;;;;;14.84;78.86;99534.75;5021268;28;20038;-81
2022/05/31 04:53:27;;;;;;;7.65;5.78;;;;;;;14.86;79.10;99535.56;4989817;28;20098;-80
2022/05/31 04:56:25;;;;;;;5.43;4.68;;;;;;;14.92;79.26;99538.88;5002620;28;20057;-80
2022/05/31 04:58:56;;;;;;;8.45;5.65;;;;;;;14.88;79.08;99525.94;4991790;28;20046;-81
2022/05/31 05:01:23;;;;;;;6.70;5.88;;;;;;;14.87;79.03;99526.84;5033669;28;20045;-80
2022/05/31 05:03:56;;;;;;;8.80;6.00;;;;;;;14.84;79.65;99540.81;5030247;28;20033;-81
2022/05/31 05:06:23;;;;;;;6.30;5.00;;;;;;;14.81;79.99;99538.31;5030808;28;20448;-81
2022/05/31 05:08:52;;;;;;;9.23;5.45;;;;;;;14.76;80.36;99531.47;5014448;28;20061;-81
2022/05/31 05:11:19;;;;;;;10.30;8.98;;;;;;;14.69;80.53;99515.94;5031314;28;20071;-81
2022/05/31 05:13:59;;;;;;;16.67;12.52;;;;;;;14.76;80.96;99526.25;5001935;28;20491;-81
2022/05/31 05:16:53;;;;;;;8.65;6.70;;;;;;;14.83;80.76;99533.88;5019111;28;20041;-81
2022/05/31 05:19:20;;;;;;;12.15;8.15;;;;;;;14.81;81.23;99525.25;4999421;28;20076;-80
2022/05/31 05:21:52;;;;;;;8.60;6.22;;;;;;;14.76;81.35;99515.81;5016272;28;20025;-81
2022/05/31 05:24:18;;;;;;;9.77;6.10;;;;;;;14.79;81.55;99531.38;5015118;28;20052;-80
2022/05/31 05:26:51;;;;;;;7.28;5.60;;;;;;;14.84;81.71;99524.28;5015471;28;20032;-80
2022/05/31 05:32:27;;;;;;;7.57;5.68;;;;;;;14.99;81.93;99523.94;5032146;28;20045;-81
2022/05/31 05:35:07;;;;;;;6.65;5.20;;;;;;;14.97;81.57;99513.50;5016552;28;20083;-81
2022/05/31 05:37:36;;;;;;;6.93;5.38;;;;;;;15.02;80.63;99513.41;5015933;28;20415;-83
2022/05/31 05:40:04;;;;;;;8.48;5.28;;;;;;;15.07;80.76;99531.56;5013253;28;20025;-83
2022/05/31 05:42:34;;;;;;;6.97;5.03;;;;;;;15.16;80.42;99526.97;5036152;28;20047;-80
2022/05/31 05:45:15;;;;;;;7.10;5.63;;;;;;;15.07;80.07;99511.53;5016259;28;20044;-84
2022/05/31 05:47:42;;;;;;;7.15;4.55;;;;;;;15.14;79.81;99505.28;5036171;28;20044;-81
2022/05/31 05:50:09;;;;;;;6.13;5.10;;;;;;;15.15;78.73;99514.81;5012271;28;20026;-80
2022/05/31 05:53:01;;;;;;;8.65;6.45;;;;;;;15.28;79.72;99520.59;5038286;28;20052;-81
2022/05/31 05:55:59;;;;;;;6.72;4.93;;;;;;;15.29;79.30;99518.84;5018102;28;20084;-80
2022/05/31 05:58:51;;;;;;;6.53;5.22;;;;;;;15.33;79.11;99528.31;5020481;28;20049;-80
2022/05/31 06:01:45;;;;;;;11.30;6.28;;;;;;;15.39;78.99;99526.41;5030425;28;20048;-81
2022/05/31 06:04:35;;;;;;;6.68;5.63;;;;;;;15.32;78.67;99530.09;5013645;28;20037;-82
2022/05/31 06:07:49;;;;;;;7.82;5.20;;;;;;;15.42;79.39;99530.69;5020640;28;20042;-84
2022/05/31 06:10:22;;;;;;;6.03;5.35;;;;;;;15.45;78.78;99535.84;5007274;28;20137;-83
2022/05/31 06:12:51;;;;;;;6.90;5.18;;;;;;;15.44;78.94;99523.66;5042812;28;20041;-81
2022/05/31 06:15:22;;;;;;;7.63;5.35;;;;;;;15.54;78.73;99526.91;5014733;28;20516;-81
2022/05/31 06:17:52;;;;;;;5.93;4.90;;;;;;;15.57;78.49;99521.59;5014859;28;20557;-88
2022/05/31 06:20:18;;;;;;;20.10;15.20;;;;;;;15.62;78.59;99504.88;4985528;28;20033;-81
2022/05/31 06:22:44;;;;;;;8.50;6.15;;;;;;;15.82;78.11;99529.69;5029912;28;20400;-81
2022/05/31 06:25:17;;;;;;;9.60;5.05;;;;;;;15.82;78.35;99509.59;5015959;28;20048;-82
2022/05/31 06:28:12;;;;;;;6.45;4.45;;;;;;;15.99;78.12;99530.94;5001871;28;20531;-82
2022/05/31 06:30:38;;;;;;;8.48;5.30;;;;;;;15.98;77.75;99517.88;5009186;28;20045;-80
2022/05/31 06:33:05;;;;;;;11.07;5.10;;;;;;;16.05;77.89;99527.28;5021480;28;20094;-81
2022/05/31 06:35:31;;;;;;;6.15;5.07;;;;;;;16.07;77.70;99508.91;5025603;28;20152;-82
2022/05/31 06:38:02;;;;;;;10.60;5.72;;;;;;;16.12;77.19;99520.09;5025593;28;20564;-82
2022/05/31 06:40:29;;;;;;;6.53;5.13;;;;;;;16.21;78.10;99519.81;5026011;28;20034;-81
2022/05/31 06:42:58;;;;;;;7.50;5.35;;;;;;;16.23;78.10;99518.03;5023100;28;20519;-82
2022/05/31 06:45:42;;;;;;;8.82;5.63;;;;;;;16.32;78.38;99516.91;5007758;28;20586;-81
2022/05/31 06:48:27;;;;;;;7.45;4.97;;;;;;;16.51;77.42;99528.53;5015263;28;20187;-82
2022/05/31 06:51:13;;;;;;;8.97;5.43;;;;;;;16.37;76.91;99515.00;5032132;28;20496;-81
2022/05/31 06:57:03;;;;;;;10.07;7.30;;;;;;;16.47;76.80;99527.75;5020223;28;20563;-81
2022/05/31 06:59:33;;;;;;;9.05;6.47;;;;;;;16.46;77.39;99535.69;5043263;28;20064;-81
2022/05/31 07:02:05;;;;;;;9.75;7.53;;;;;;;16.45;77.90;99529.59;5028610;28;20385;-80
2022/05/31 07:04:32;;;;;;;8.32;7.20;;;;;;;16.53;77.62;99537.19;5041642;28;20036;-83
2022/05/31 07:06:58;;;;;;;8.05;6.53;;;;;;;16.51;77.27;99525.91;5024411;28;20120;-82
2022/05/31 07:09:42;;;;;;;9.05;6.65;;;;;;;16.50;76.77;99527.69;5010603;28;20045;-85
2022/05/31 07:12:17;;;;;;;7.78;6.18;;;;;;;16.56;76.90;99534.50;5010636;28;20048;-82
2022/05/31 07:14:58;;;;;;;10.02;6.95;;;;;;;16.47;76.86;99521.69;5035199;28;20049;-81
2022/05/31 07:17:46;;;;;;;7.43;5.63;;;;;;;16.47;76.62;99532.16;5019914;28;20483;-81
2022/05/31 07:20:12;;;;;;;8.95;5.80;;;;;;;16.48;77.64;99533.84;5011072;28;20036;-82
2022/05/31 07:22:39;;;;;;;7.00;5.60;;;;;;;16.47;77.57;99525.16;5027166;28;20453;-82
2022/05/31 07:25:25;;;;;;;8.48;6.47;;;;;;;16.50;77.66;99532.06;5020546;28;20037;-83
2022/05/31 07:27:57;;;;;;;8.95;6.40;;;;;;;16.59;77.61;99542.25;5017904;28;20037;-82
2022/05/31 07:30:23;;;;;;;6.85;4.50;;;;;;;16.51;77.01;99542.47;5001384;28;20040;-81
2022/05/31 07:32:50;;;;;;;7.50;5.28;;;;;;;16.44;77.17;99542.69;5033864;28;20044;-82
2022/05/31 07:35:16;;;;;;;9.63;4.97;;;;;;;16.45;78.07;99547.91;5002413;28;20435;-82
2022/05/31 07:37:42;;;;;;;9.43;5.90;;;;;;;16.48;77.81;99545.19;5024870;28;20068;-82
2022/05/31 07:40:15;;;;;;;9.05;5.90;;;;;;;16.52;77.77;99551.19;5031931;28;20030;-81
2022/05/31 07:42:41;;;;;;;14.35;11.13;;;;;;;16.60;77.81;99549.22;5012204;28;20048;-82
2022/05/31 07:45:08;;;;;;;13.57;10.45;;;;;;;16.61;77.74;99550.06;5028531;28;20034;-81
2022/05/31 07:47:33;;;;;;;7.68;5.07;;;;;;;16.52;77.85;99545.94;5023891;28;20043;-82
2022/05/31 07:49:59;;;;;;;6.18;5.07;;;;;;;16.54;78.40;99554.63;5025490;28;20056;-83
2022/05/31 07:52:44;;;;;;;7.28;5.05;;;;;;;16.58;78.37;99548.38;5013731;28;20139;-80
2022/05/31 07:56:07;;;;;;;6.30;4.40;;;;;;;16.59;77.84;99552.72;5012894;28;20548;-81
2022/05/31 07:58:51;;;;;;;6.68;4.70;;;;;;;16.65;78.02;99551.69;5013364;28;20064;-81
2022/05/31 08:01:36;;;;;;;5.00;4.28;;;;;;;16.56;77.49;99537.09;5013083;28;20521;-81
2022/05/31 08:04:14;;;;;;;6.03;5.28;;;;;;;16.68;77.31;99548.97;5021416;28;20041;-82
2022/05/31 08:06:40;;;;;;;6.65;4.80;;;;;;;16.66;77.78;99530.66;5015770;28;20034;-81
2022/05/31 08:09:06;;;;;;;7.03;4.82;;;;;;;16.66;76.91;99533.28;5031833;28;20084;-81
2022/05/31 08:11:32;;;;;;;5.05;4.05;;;;;;;16.75;77.50;99546.13;5034697;28;20037;-83
2022/05/31 08:13:58;;;;;;;4.63;4.05;;;;;;;16.88;77.25;99551.00;5017264;28;20045;-82
2022/05/31 08:16:25;;;;;;;7.10;5.28;;;;;;;16.92;77.01;99535.13;4999681;28;20055;-81
2022/05/31 08:18:51;;;;;;;7.80;5.13;;;;;;;16.99;76.16;99531.41;4983301;28;20037;-80
2022/05/31 08:21:19;;;;;;;4.82;3.80;;;;;;;17.21;75.51;99549.06;5018763;28;20408;-81
2022/05/31 08:23:44;;;;;;;5.65;3.63;;;;;;;17.24;73.92;99555.06;5007890;28;20034;-82
2022/05/31 08:26:10;;;;;;;30.52;27.27;;;;;;;17.23;74.58;99555.97;5013583;28;20084;-83
2022/05/31 08:28:36;;;;;;;7.00;4.32;;;;;;;17.17;73.74;99550.91;5026929;28;20030;-83
2022/05/31 08:31:04;;;;;;;5.50;3.75;;;;;;;17.14;73.95;99548.41;4973493;28;20047;-81
2022/05/31 08:33:30;;;;;;;5.15;3.70;;;;;;;17.23;75.21;99549.88;5025968;28;20061;-81
2022/05/31 08:35:56;;;;;;;7.60;3.85;;;;;;;17.28;74.46;99543.56;5030426;28;20037;-82
2022/05/31 08:38:22;;;;;;;6.10;4.28;;;;;;;17.37;74.28;99552.03;5010896;28;20041;-81
2022/05/31 08:40:51;;;;;;;5.68;4.22;;;;;;;17.35;72.79;99551.22;5011972;28;20401;-81
2022/05/31 08:43:17;;;;;;;6.70;4.10;;;;;;;17.41;72.85;99551.88;5028903;28;20052;-82
2022/05/31 08:45:51;;;;;;;5.97;3.70;;;;;;;17.42;72.86;99555.34;5023560;28;20038;-82
2022/05/31 08:48:35;;;;;;;9.45;4.30;;;;;;;17.30;72.58;99551.38;5020168;28;20041;-82
2022/05/31 08:56:58;;;;;;;5.95;4.20;;;;;;;17.19;73.29;99551.72;5001668;28;20046;-82
2022/05/31 08:59:39;;;;;;;7.95;4.10;;;;;;;17.27;73.70;99546.22;5042241;28;20041;-81
2022/05/31 09:02:18;;;;;;;5.93;3.72;;;;;;;17.41;73.11;99554.50;5011723;28;20053;-81
2022/05/31 09:04:47;;;;;;;8.02;5.03;;;;;;;17.41;72.70;99553.63;5030181;28;20041;-83
2022/05/31 09:07:32;;;;;;;6.85;4.68;;;;;;;17.42;73.46;99542.25;4995181;28;20120;-83
2022/05/31 09:10:10;;;;;;;4.85;3.97;;;;;;;17.54;72.65;99549.69;5035834;28;20093;-83
2022/05/31 09:12:36;;;;;;;5.75;3.88;;;;;;;17.52;72.29;99548.88;5042250;28;20080;-82
2022/05/31 09:15:14;;;;;;;8.73;5.80;;;;;;;17.39;73.11;99561.53;5019970;28;20033;-83
2022/05/31 09:17:49;;;;;;;7.85;4.50;;;;;;;17.43;73.21;99550.06;5016587;28;20140;-82
2022/05/31 09:20:17;;;;;;;5.38;4.20;;;;;;;17.45;72.72;99557.84;5018655;28;20052;-80
2022/05/31 09:22:44;;;;;;;7.85;4.43;;;;;;;17.49;73.41;99568.19;5013636;28;20033;-81
2022/05/31 09:25:14;;;;;;;8.55;4.72;;;;;;;17.54;73.46;99555.78;5027657;28;20135;-82
2022/05/31 09:27:46;;;;;;;7.80;4.80;;;;;;;17.56;73.20;99562.75;5016705;28;20404;-82
2022/05/31 09:30:25;;;;;;;7.15;4.35;;;;;;;17.48;73.50;99565.63;5020660;28;20049;-82
2022/05/31 09:33:12;;;;;;;5.93;4.80;;;;;;;17.40;74.15;99555.38;4998803;28;20034;-82
2022/05/31 09:35:47;;;;;;;5.75;4.28;;;;;;;17.50;73.82;99566.41;5002456;28;20047;-82
2022/05/31 09:38:31;;;;;;;6.43;5.00;;;;;;;17.44;73.15;99564.88;5009872;28;20048;-82
2022/05/31 09:41:24;;;;;;;7.03;6.03;;;;;;;17.37;73.47;99584.34;5013314;28;20045;-84
2022/05/31 09:44:06;;;;;;;7.25;6.18;;;;;;;17.21;74.53;99578.75;5017831;28;20053;-83
2022/05/31 09:46:45;;;;;;;8.52;6.70;;;;;;;17.13;75.29;99575.50;5013932;28;20041;-82
2022/05/31 09:49:33;;;;;;;7.43;6.65;;;;;;;17.16;76.84;99577.19;4996205;28;20069;-82
2022/05/31 09:51:59;;;;;;;8.60;7.13;;;;;;;17.18;76.96;99581.47;5010268;28;20096;-82
2022/05/31 09:57:29;;;;;;;11.82;9.40;;;;;;;17.03;78.87;99577.56;5014700;28;20058;-83
2022/05/31 10:00:27;;;;;;;9.25;8.07;;;;;;;17.02;79.51;99577.63;5037473;28;20136;-85
2022/05/31 10:03:13;;;;;;;9.52;7.93;;;;;;;17.09;79.68;99591.38;5031036;28;20072;-82
2022/05/31 10:05:39;;;;;;;8.57;7.50;;;;;;;17.05;79.56;99585.41;5046425;28;20048;-83
2022/05/31 10:08:30;;;;;;;12.43;7.55;;;;;;;17.08;79.70;99598.38;5010656;28;20040;-83
2022/05/31 10:10:56;;;;;;;10.20;7.90;;;;;;;16.91;79.84;99590.22;5007231;28;20564;-83
2022/05/31 10:13:53;;;;;;;9.48;8.13;;;;;;;17.00;80.51;99600.41;5042342;28;20117;-82
2022/05/31 10:16:27;;;;;;;10.40;8.32;;;;;;;16.93;80.27;99604.97;5009395;28;20128;-82
2022/05/31 10:18:55;;;;;;;9.15;7.82;;;;;;;16.91;80.28;99608.56;5021941;28;20064;-82
2022/05/31 10:21:28;;;;;;;10.38;8.68;;;;;;;16.87;80.86;99606.94;5020915;28;20034;-83
2022/05/31 10:23:55;;;;;;;9.93;8.10;;;;;;;16.88;81.40;99603.41;5041586;28;20045;-82
2022/05/31 10:26:40;;;;;;;11.45;7.97;;;;;;;16.92;80.27;99610.28;5031756;28;20040;-80
2022/05/31 10:29:28;;;;;;;10.98;8.13;;;;;;;16.84;79.88;99599.16;5017527;28;20527;-82
2022/05/31 10:32:27;;;;;;;11.07;8.50;;;;;;;16.83;80.08;99608.78;5008903;28;20052;-81
2022/05/31 10:35:24;;;;;;;10.73;8.57;;;;;;;16.81;80.47;99620.19;5030259;28;20520;-81
2022/05/31 10:37:57;;;;;;;10.02;7.95;;;;;;;16.79;80.02;99627.25;5029763;28;20051;-81
2022/05/31 10:40:48;;;;;;;14.18;9.23;;;;;;;16.70;80.57;99621.34;5024817;28;20124;-82
2022/05/31 10:43:33;;;;;;;9.88;8.15;;;;;;;16.60;80.38;99606.81;5024105;28;20050;-82
2022/05/31 10:46:02;;;;;;;9.63;8.38;;;;;;;16.63;80.55;99619.84;5015998;28;20067;-81
2022/05/31 10:48:27;;;;;;;9.70;8.70;;;;;;;16.63;80.93;99618.94;5014540;28;20069;-81
2022/05/31 10:51:07;;;;;;;11.10;9.45;;;;;;;16.65;81.38;99625.88;4998488;28;20090;-82
2022/05/31 10:53:54;;;;;;;10.77;9.68;;;;;;;16.66;81.54;99624.97;5018133;28;20038;-80
2022/05/31 10:56:20;;;;;;;;;;;;;;;16.76;81.55;99622.97;5030330;28;20091;-81
2022/05/31 10:59:05;;;;;;;11.85;9.25;;;;;;;16.74;80.96;99614.31;4982616;28;19944;-83
2022/05/31 11:01:53;;;;;;;11.52;8.77;;;;;;;16.66;80.72;99606.63;4986102;28;20069;-82
2022/05/31 11:04:28;;;;;;;12.95;10.15;;;;;;;16.77;80.18;99633.41;5020303;28;20034;-82
2022/05/31 11:07:09;;;;;;;11.15;9.70;;;;;;;16.77;80.18;99630.78;5013309;28;20049;-81
2022/05/31 11:13:05;;;;;;;10.73;9.57;;;;;;;16.78;80.46;99626.41;5025208;28;20042;-83
2022/05/31 11:15:44;;;;;;;11.55;10.30;;;;;;;16.72;79.87;99621.31;5015232;28;20037;-83
2022/05/31 11:18:32;;;;;;;12.73;11.40;;;;;;;16.83;80.32;99624.50;4999991;28;20431;-83
2022/05/31 11:21:19;;;;;;;11.07;9.82;;;;;;;16.96;79.88;99635.47;5004769;28;20058;-83
2022/05/31 11:24:17;;;;;;;10.10;8.32;;;;;;;17.02;78.74;99632.66;5027997;28;20041;-83
2022/05/31 11:27:09;;;;;;;13.13;9.07;;;;;;;16.99;78.47;99630.97;5019813;28;20034;-85
2022/05/31 11:29:57;;;;;;;12.73;10.55;;;;;;;17.02;78.69;99643.13;5014901;28;20512;-82
2022/05/31 11:33:00;;;;;;;13.32;11.77;;;;;;;17.00;79.01;99627.47;5032129;28;20049;-82
2022/05/31 11:35:42;;;;;;;12.60;9.30;;;;;;;17.12;78.45;99630.59;5011142;28;20420;-80
2022/05/31 11:38:22;;;;;;;10.82;9.73;;;;;;;17.14;78.24;99639.28;5013307;28;20535;-82
2022/05/31 11:40:57;;;;;;;11.38;9.48;;;;;;;17.10;78.08;99649.00;5029222;28;20450;-82
2022/05/31 11:43:54;;;;;;;10.13;9.05;;;;;;;17.07;78.31;99643.84;5021332;28;20500;-83
2022/05/31 11:46:27;;;;;;;10.98;9.73;;;;;;;17.02;78.62;99646.63;5017648;28;20037;-82
2022/05/31 11:49:00;;;;;;;13.38;10.45;;;;;;;17.01;79.14;99651.91;5039797;28;20616;-82
2022/05/31 11:51:34;;;;;;;11.98;10.75;;;;;;;16.99;79.18;99646.69;5006126;28;20092;-82
2022/05/31 11:54:28;;;;;;;13.65;11.32;;;;;;;17.00;79.55;99658.06;5005091;28;20041;-82
2022/05/31 11:57:17;;;;;;;13.23;11.95;;;;;;;16.97;79.64;99652.91;5023934;28;20046;-83
2022/05/31 11:59:59;;;;;;;11.23;9.73;;;;;;;17.00;79.56;99652.81;4996453;28;20057;-81
2022/05/31 12:02:48;;;;;;;10.25;9.10;;;;;;;17.12;79.12;99656.81;5011057;28;20034;-82
2022/05/31 12:05:30;;;;;;;12.43;10.82;;;;;;;16.98;78.43;99634.50;5003751;28;20052;-83
2022/05/31 12:08:17;;;;;;;16.42;11.23;;;;;;;17.11;78.80;99652.47;4985558;28;20045;-82
2022/05/31 12:10:55;;;;;;;10.55;9.00;;;;;;;17.17;79.10;99658.38;5020089;28;20038;-83
2022/05/31 12:13:21;;;;;;;10.90;9.63;;;;;;;17.14;78.55;99661.13;5035791;28;20029;-82
2022/05/31 12:15:49;;;;;;;11.38;8.88;;;;;;;17.04;78.54;99654.41;5034103;28;20358;-83
2022/05/31 12:18:37;;;;;;;13.40;11.30;;;;;;;16.91;79.83;99660.97;5016178;28;20091;-87
2022/05/31 12:21:55;;;;;;;11.35;10.15;;;;;;;16.86;80.48;99665.44;5022625;28;20086;-82
2022/05/31 12:24:27;;;;;;;8.70;7.68;;;;;;;16.91;80.31;99658.34;5031631;28;20069;-82
2022/05/31 12:27:10;;;;;;;11.95;8.95;;;;;;;16.92;80.19;99645.19;5010246;28;20037;-82
2022/05/31 12:29:41;;;;;;;11.32;8.55;;;;;;;17.05;79.76;99655.31;5022137;28;20037;-82